createdAt,value
2018-10-06T00:00:24.153Z,8.59
2018-10-06T00:02:52.812Z,8.64
2018-10-06T00:05:21.401Z,8.72
2018-10-06T00:07:49.954Z,8.64
2018-10-06T00:10:18.488Z,8.57
2018-10-06T00:12:46.993Z,8.56
2018-10-06T00:15:15.531Z,8.57
2018-10-06T00:17:44.025Z,8.53
2018-10-06T00:20:14.126Z,8.53
2018-10-06T00:22:42.646Z,8.45
2018-10-06T00:25:12.111Z,8.51
2018-10-06T00:27:40.634Z,8.46
2018-10-06T00:30:09.372Z,8.53
2018-10-06T00:32:37.922Z,8.51
2018-10-06T00:35:06.463Z,8.54
2018-10-06T00:37:35.017Z,8.58
2018-10-06T00:40:05.121Z,8.56
2018-10-06T00:42:33.583Z,8.57
2018-10-06T00:45:04.534Z,8.49
2018-10-06T00:47:33.050Z,8.53
2018-10-06T00:50:03.430Z,8.49
2018-10-06T00:52:31.946Z,8.44
2018-10-06T00:55:00.505Z,8.39
2018-10-06T00:57:29.051Z,8.43
2018-10-06T00:59:57.589Z,8.35
2018-10-06T01:02:26.202Z,8.28
2018-10-06T01:04:54.737Z,8.36
2018-10-06T01:07:23.662Z,8.30
2018-10-06T01:09:52.565Z,8.31
2018-10-06T01:12:21.384Z,8.23
2018-10-06T01:14:49.883Z,8.32
2018-10-06T01:17:18.369Z,8.35
2018-10-06T01:19:46.905Z,8.29
2018-10-06T01:22:18.241Z,8.24
2018-10-06T01:24:46.791Z,8.25
2018-10-06T01:27:15.533Z,8.23
2018-10-06T01:29:44.031Z,8.19
2018-10-06T01:32:12.586Z,8.14
2018-10-06T01:34:41.128Z,8.13
2018-10-06T01:37:09.647Z,8.21
2018-10-06T01:39:38.219Z,8.24
2018-10-06T01:42:06.824Z,8.22
2018-10-06T01:44:36.329Z,8.25
2018-10-06T01:47:05.215Z,8.29
2018-10-06T01:49:33.736Z,8.23
2018-10-06T01:52:03.691Z,8.20
2018-10-06T01:54:32.207Z,8.15
2018-10-06T01:57:00.972Z,8.13
2018-10-06T01:59:29.499Z,8.11
2018-10-06T02:01:58.008Z,8.13
2018-10-06T02:04:26.868Z,8.14
2018-10-06T02:06:56.523Z,8.13
2018-10-06T02:09:25.132Z,8.14
2018-10-06T02:11:53.671Z,8.41
2018-10-06T02:14:22.182Z,8.35
2018-10-06T02:16:50.760Z,8.47
2018-10-06T02:19:19.262Z,8.45
2018-10-06T02:21:47.831Z,8.40
2018-10-06T02:24:16.323Z,8.50
2018-10-06T02:26:44.863Z,8.40
2018-10-06T02:29:13.416Z,8.35
2018-10-06T02:31:41.952Z,8.28
2018-10-06T02:34:10.479Z,8.37
2018-10-06T02:36:39.267Z,8.33
2018-10-06T02:39:07.895Z,8.29
2018-10-06T02:41:36.772Z,8.34
2018-10-06T02:44:05.271Z,8.23
2018-10-06T02:46:33.808Z,8.15
2018-10-06T02:49:03.711Z,8.12
2018-10-06T02:51:32.238Z,8.09
2018-10-06T02:54:03.189Z,8.06
2018-10-06T02:56:31.690Z,8.04
2018-10-06T02:59:00.274Z,8.01
2018-10-06T03:01:29.097Z,7.95
2018-10-06T03:03:57.594Z,7.89
2018-10-06T03:06:26.111Z,7.85
2018-10-06T03:08:54.629Z,7.82
2018-10-06T03:11:23.189Z,7.76
2018-10-06T03:13:51.684Z,7.75
2018-10-06T03:16:20.188Z,7.70
2018-10-06T03:18:48.807Z,7.64
2018-10-06T03:21:17.763Z,7.74
2018-10-06T03:23:46.354Z,7.80
2018-10-06T03:26:14.865Z,7.86
2018-10-06T03:28:43.487Z,8.07
2018-10-06T03:31:11.974Z,8.11
2018-10-06T03:33:40.774Z,8.17
2018-10-06T03:36:09.319Z,8.33
2018-10-06T03:38:37.818Z,8.39
2018-10-06T03:41:06.402Z,8.12
2018-10-06T03:43:34.880Z,7.99
2018-10-06T03:46:04.414Z,7.82
2018-10-06T03:48:33.028Z,7.88
2018-10-06T03:51:03.088Z,7.83
2018-10-06T03:53:31.716Z,7.94
2018-10-06T03:56:00.213Z,7.76
2018-10-06T03:58:28.793Z,7.82
2018-10-06T04:00:57.323Z,7.67
2018-10-06T04:03:25.813Z,7.59
2018-10-06T04:05:54.349Z,7.49
2018-10-06T04:08:22.911Z,7.48
2018-10-06T04:10:51.521Z,7.46
2018-10-06T04:13:20.056Z,7.38
2018-10-06T04:15:48.564Z,7.29
2018-10-06T04:18:17.066Z,7.27
2018-10-06T04:20:45.865Z,7.28
2018-10-06T04:23:14.442Z,7.27
2018-10-06T04:25:43.174Z,7.27
2018-10-06T04:28:12.002Z,7.25
2018-10-06T04:30:40.509Z,7.23
2018-10-06T04:33:09.078Z,7.19
2018-10-06T04:35:37.653Z,7.20
2018-10-06T04:38:07.778Z,7.14
2018-10-06T04:40:36.348Z,7.16
2018-10-06T04:43:05.157Z,7.09
2018-10-06T04:45:33.690Z,7.04
2018-10-06T04:48:03.734Z,6.96
2018-10-06T04:50:32.647Z,7.04
2018-10-06T04:53:03.294Z,7.08
2018-10-06T04:55:31.781Z,7.12
2018-10-06T04:58:02.897Z,7.13
2018-10-06T05:00:31.776Z,7.22
2018-10-06T05:03:00.258Z,7.21
2018-10-06T05:05:28.781Z,7.28
2018-10-06T05:07:57.353Z,7.32
2018-10-06T05:10:25.875Z,7.23
2018-10-06T05:12:54.411Z,7.11
2018-10-06T05:15:23.004Z,7.06
2018-10-06T05:17:51.507Z,6.93
2018-10-06T05:20:20.091Z,6.91
2018-10-06T05:22:48.783Z,6.83
2018-10-06T05:25:17.353Z,6.77
2018-10-06T05:27:45.853Z,6.78
2018-10-06T05:30:15.769Z,6.74
2018-10-06T05:32:44.302Z,6.80
2018-10-06T05:35:12.808Z,6.76
2018-10-06T05:37:41.581Z,6.73
2018-10-06T05:40:10.104Z,6.70
2018-10-06T05:42:38.656Z,6.70
2018-10-06T05:45:07.243Z,6.66
2018-10-06T05:47:35.793Z,6.70
2018-10-06T05:50:05.563Z,6.67
2018-10-06T05:52:34.101Z,6.65
2018-10-06T05:55:03.609Z,6.64
2018-10-06T05:57:32.118Z,6.77
2018-10-06T06:00:00.651Z,6.76
2018-10-06T06:02:29.258Z,6.74
2018-10-06T06:04:57.808Z,6.80
2018-10-06T06:07:26.417Z,6.80
2018-10-06T06:09:54.945Z,6.81
2018-10-06T06:12:23.485Z,6.86
2018-10-06T06:14:52.136Z,6.92
2018-10-06T06:17:20.646Z,6.96
2018-10-06T06:19:49.214Z,7.03
2018-10-06T06:22:17.727Z,7.07
2018-10-06T06:24:46.245Z,7.16
2018-10-06T06:27:14.798Z,7.23
2018-10-06T06:29:43.469Z,7.31
2018-10-06T06:32:11.990Z,7.41
2018-10-06T06:34:40.513Z,7.50
2018-10-06T06:37:09.382Z,7.58
2018-10-06T06:39:37.877Z,7.67
2018-10-06T06:42:06.575Z,7.79
2018-10-06T06:44:35.264Z,7.88
2018-10-06T06:47:06.461Z,7.99
2018-10-06T06:49:35.065Z,8.10
2018-10-06T06:52:04.673Z,8.19
2018-10-06T06:54:33.501Z,8.32
2018-10-06T06:57:03.277Z,8.41
2018-10-06T06:59:31.786Z,8.55
2018-10-06T07:02:00.405Z,8.67
2018-10-06T07:04:28.969Z,8.80
2018-10-06T07:06:57.739Z,8.89
2018-10-06T07:09:26.230Z,9.11
2018-10-06T07:11:54.780Z,9.24
2018-10-06T07:14:23.337Z,9.45
2018-10-06T07:16:51.964Z,9.52
2018-10-06T07:19:20.801Z,9.61
2018-10-06T07:21:49.345Z,9.77
2018-10-06T07:24:17.902Z,9.93
2018-10-06T07:26:46.385Z,10.16
2018-10-06T07:29:14.904Z,10.32
2018-10-06T07:31:43.525Z,10.51
2018-10-06T07:34:12.139Z,10.68
2018-10-06T07:36:40.648Z,10.84
2018-10-06T07:39:09.153Z,10.98
2018-10-06T07:41:37.648Z,11.11
2018-10-06T07:44:06.223Z,11.24
2018-10-06T07:46:34.831Z,11.41
2018-10-06T07:49:04.573Z,11.55
2018-10-06T07:51:33.119Z,11.68
2018-10-06T07:54:02.766Z,11.81
2018-10-06T07:56:31.319Z,11.96
2018-10-06T07:58:59.815Z,12.10
2018-10-06T08:01:28.328Z,12.20
2018-10-06T08:03:56.853Z,12.41
2018-10-06T08:06:25.415Z,12.56
2018-10-06T08:08:53.926Z,12.68
2018-10-06T08:11:22.431Z,12.76
2018-10-06T08:13:51.130Z,12.87
2018-10-06T08:16:20.016Z,13.02
2018-10-06T08:18:48.568Z,13.10
2018-10-06T08:21:18.283Z,13.15
2018-10-06T08:23:46.848Z,13.31
2018-10-06T08:26:16.326Z,13.51
2018-10-06T08:28:44.877Z,13.53
2018-10-06T08:31:13.423Z,13.58
2018-10-06T08:33:41.948Z,13.68
2018-10-06T08:36:10.509Z,13.92
2018-10-06T08:38:39.080Z,14.16
2018-10-06T08:41:07.578Z,14.21
2018-10-06T08:43:36.364Z,14.46
2018-10-06T08:46:05.703Z,14.51
2018-10-06T08:48:34.278Z,14.62
2018-10-06T08:51:04.122Z,14.83
2018-10-06T08:53:32.651Z,15.03
2018-10-06T08:56:03.410Z,15.19
2018-10-06T08:58:31.831Z,15.27
2018-10-06T09:01:00.474Z,15.40
2018-10-06T09:03:28.977Z,15.56
2018-10-06T09:05:57.510Z,15.78
2018-10-06T09:08:26.238Z,15.79
2018-10-06T09:10:54.912Z,15.84
2018-10-06T09:13:24.158Z,16.04
2018-10-06T09:15:52.823Z,16.23
2018-10-06T09:18:21.312Z,16.31
2018-10-06T09:20:49.955Z,16.56
2018-10-06T09:23:18.444Z,16.67
2018-10-06T09:25:46.949Z,16.82
2018-10-06T09:28:15.512Z,16.96
2018-10-06T09:30:44.012Z,17.47
2018-10-06T09:33:12.692Z,17.50
2018-10-06T09:35:41.321Z,17.73
2018-10-06T09:38:09.924Z,17.94
2018-10-06T09:40:39.006Z,17.84
2018-10-06T09:43:07.472Z,18.02
2018-10-06T09:45:36.152Z,18.19
2018-10-06T09:48:06.155Z,18.21
2018-10-06T09:50:34.655Z,18.28
2018-10-06T09:53:05.504Z,18.41
2018-10-06T09:55:35.289Z,18.75
2018-10-06T09:58:05.742Z,18.83
2018-10-06T10:00:39.477Z,18.72
2018-10-06T10:03:13.206Z,18.87
2018-10-06T10:05:48.257Z,19.02
2018-10-06T10:08:17.229Z,18.73
2018-10-06T10:10:46.249Z,19.22
2018-10-06T10:13:14.774Z,19.33
2018-10-06T10:15:43.383Z,19.25
2018-10-06T10:18:12.290Z,19.37
2018-10-06T10:20:41.401Z,19.50
2018-10-06T10:23:10.273Z,19.88
2018-10-06T10:25:39.236Z,20.11
2018-10-06T10:30:36.018Z,20.22
2018-10-06T10:33:06.041Z,20.13
2018-10-06T10:35:34.553Z,20.37
2018-10-06T10:38:05.472Z,20.38
2018-10-06T10:40:34.027Z,20.61
2018-10-06T10:43:05.766Z,20.69
2018-10-06T10:45:34.572Z,20.60
2018-10-06T10:48:04.784Z,20.77
2018-10-06T10:50:33.943Z,21.01
2018-10-06T10:53:04.248Z,21.12
2018-10-06T10:55:32.883Z,21.14
2018-10-06T10:58:03.949Z,21.10
2018-10-06T11:00:32.793Z,21.32
2018-10-06T11:03:02.994Z,21.47
2018-10-06T11:05:31.520Z,21.65
2018-10-06T11:08:00.053Z,21.47
2018-10-06T11:10:28.649Z,21.65
2018-10-06T11:12:57.138Z,21.39
2018-10-06T11:15:25.659Z,21.76
2018-10-06T11:17:54.183Z,21.66
2018-10-06T11:20:23.095Z,21.89
2018-10-06T11:22:51.839Z,22.06
2018-10-06T11:25:20.398Z,22.10
2018-10-06T11:27:48.984Z,22.10
2018-10-06T11:30:17.480Z,22.14
2018-10-06T11:32:46.033Z,22.30
2018-10-06T11:35:14.706Z,22.42
2018-10-06T11:37:43.453Z,22.07
2018-10-06T11:40:12.205Z,22.49
2018-10-06T11:42:40.712Z,22.61
2018-10-06T11:45:09.542Z,22.75
2018-10-06T11:47:38.249Z,22.82
2018-10-06T11:50:06.916Z,22.54
2018-10-06T11:52:35.588Z,22.81
2018-10-06T11:55:06.141Z,22.86
2018-10-06T11:57:34.677Z,22.88
2018-10-06T12:00:05.272Z,22.99
2018-10-06T12:02:34.268Z,23.40
2018-10-06T12:05:04.621Z,23.91
2018-10-06T12:07:33.162Z,24.55
2018-10-06T12:10:08.340Z,24.93
2018-10-06T12:12:36.880Z,25.63
2018-10-06T12:15:06.199Z,26.27
2018-10-06T12:17:34.824Z,27.16
2018-10-06T12:20:05.160Z,26.09
2018-10-06T12:22:33.704Z,27.11
2018-10-06T12:25:04.580Z,27.05
2018-10-06T12:27:33.154Z,25.99
2018-10-06T12:30:03.748Z,27.16
2018-10-06T12:32:32.297Z,28.15
2018-10-06T12:35:00.869Z,27.02
2018-10-06T12:37:29.772Z,28.36
2018-10-06T12:39:58.456Z,28.26
2018-10-06T12:42:27.029Z,28.31
2018-10-06T12:44:55.854Z,29.09
2018-10-06T12:47:24.493Z,27.47
2018-10-06T12:49:53.073Z,27.13
2018-10-06T12:52:21.631Z,28.56
2018-10-06T12:54:50.267Z,28.19
2018-10-06T12:57:18.836Z,28.55
2018-10-06T12:59:47.360Z,28.22
2018-10-06T13:02:16.096Z,28.87
2018-10-06T13:04:44.613Z,29.21
2018-10-06T13:07:13.109Z,28.34
2018-10-06T13:09:41.646Z,26.66
2018-10-06T13:12:10.534Z,26.97
2018-10-06T13:14:39.080Z,26.86
2018-10-06T13:17:07.636Z,27.95
2018-10-06T13:19:36.169Z,28.12
2018-10-06T13:22:05.737Z,28.48
2018-10-06T13:24:34.320Z,28.10
2018-10-06T13:27:05.211Z,28.18
2018-10-06T13:29:33.729Z,28.75
2018-10-06T13:32:03.754Z,28.36
2018-10-06T13:34:32.411Z,27.50
2018-10-06T13:37:03.735Z,27.57
2018-10-06T13:39:34.294Z,28.28
2018-10-06T13:42:04.638Z,27.94
2018-10-06T13:44:33.481Z,26.96
2018-10-06T13:47:04.420Z,29.02
2018-10-06T13:49:33.075Z,29.38
2018-10-06T13:52:03.646Z,28.45
2018-10-06T13:54:32.224Z,29.33
2018-10-06T13:57:00.877Z,27.73
2018-10-06T13:59:29.690Z,26.96
2018-10-06T14:01:58.322Z,27.49
2018-10-06T14:04:26.870Z,28.27
2018-10-06T14:06:55.387Z,27.88
2018-10-06T14:09:23.940Z,25.76
2018-10-06T14:11:52.458Z,25.30
2018-10-06T14:14:20.963Z,27.38
2018-10-06T14:16:49.841Z,26.37
2018-10-06T14:19:18.379Z,27.19
2018-10-06T14:21:46.932Z,28.16
2018-10-06T14:24:15.771Z,27.96
2018-10-06T14:26:44.290Z,27.21
2018-10-06T14:29:12.824Z,28.40
2018-10-06T14:31:41.448Z,28.88
2018-10-06T14:34:10.417Z,28.35
2018-10-06T14:36:39.217Z,28.55
2018-10-06T14:39:10.505Z,28.77
2018-10-06T14:41:39.042Z,26.11
2018-10-06T14:44:07.636Z,26.02
2018-10-06T14:46:36.193Z,24.73
2018-10-06T14:49:06.135Z,25.67
2018-10-06T14:51:34.704Z,26.12
2018-10-06T14:54:05.237Z,25.14
2018-10-06T14:56:33.781Z,25.01
2018-10-06T14:59:04.392Z,25.36
2018-10-06T15:01:32.932Z,23.82
2018-10-06T15:04:03.172Z,24.48
2018-10-06T15:06:31.865Z,24.60
2018-10-06T15:09:00.763Z,24.40
2018-10-06T15:11:29.299Z,23.93
2018-10-06T15:13:57.854Z,23.81
2018-10-06T15:16:26.375Z,23.22
2018-10-06T15:18:54.965Z,23.01
2018-10-06T15:21:23.700Z,23.25
2018-10-06T15:23:52.206Z,23.00
2018-10-06T15:26:20.788Z,22.57
2018-10-06T15:28:49.425Z,22.43
2018-10-06T15:31:17.943Z,22.42
2018-10-06T15:33:46.549Z,22.33
2018-10-06T15:36:15.091Z,22.47
2018-10-06T15:38:43.690Z,22.44
2018-10-06T15:41:12.233Z,22.39
2018-10-06T15:43:41.088Z,21.96
2018-10-06T15:46:09.801Z,22.06
2018-10-06T15:48:38.355Z,22.07
2018-10-06T15:51:07.059Z,22.27
2018-10-06T15:53:35.552Z,22.11
2018-10-06T15:56:05.160Z,21.93
2018-10-06T15:58:33.719Z,22.17
2018-10-06T16:01:03.878Z,21.71
2018-10-06T16:03:32.496Z,21.83
2018-10-06T16:06:03.498Z,21.67
2018-10-06T16:08:32.134Z,21.43
2018-10-06T16:11:03.223Z,21.63
2018-10-06T16:13:31.817Z,21.50
2018-10-06T16:16:00.834Z,21.52
2018-10-06T16:18:29.340Z,21.37
2018-10-06T16:20:57.947Z,21.35
2018-10-06T16:23:26.465Z,21.29
2018-10-06T16:25:55.004Z,21.25
2018-10-06T16:28:23.562Z,21.34
2018-10-06T16:30:52.156Z,20.83
2018-10-06T16:33:21.086Z,21.01
2018-10-06T16:35:49.601Z,21.05
2018-10-06T16:38:18.090Z,20.88
2018-10-06T16:40:46.652Z,20.75
2018-10-06T16:43:15.162Z,20.44
2018-10-06T16:45:43.705Z,20.20
2018-10-06T16:48:12.510Z,20.37
2018-10-06T16:50:41.350Z,20.10
2018-10-06T16:53:10.077Z,20.16
2018-10-06T16:55:38.704Z,19.97
2018-10-06T16:58:08.645Z,19.74
2018-10-06T17:00:37.300Z,19.75
2018-10-06T17:03:07.144Z,19.58
2018-10-06T17:05:35.671Z,19.51
2018-10-06T17:08:06.420Z,19.25
2018-10-06T17:10:34.983Z,19.03
2018-10-06T17:13:05.509Z,19.11
2018-10-06T17:15:34.127Z,18.90
2018-10-06T17:18:03.824Z,18.81
2018-10-06T17:20:32.802Z,18.66
2018-10-06T17:23:02.865Z,18.44
2018-10-06T17:25:31.385Z,18.33
2018-10-06T17:28:00.232Z,18.22
2018-10-06T17:30:28.721Z,18.17
2018-10-06T17:32:57.212Z,18.04
2018-10-06T17:35:25.777Z,17.89
2018-10-06T17:37:54.336Z,17.85
2018-10-06T17:40:23.237Z,17.73
2018-10-06T17:42:51.787Z,17.72
2018-10-06T17:45:20.328Z,17.71
2018-10-06T17:47:49.183Z,17.70
2018-10-06T17:50:17.872Z,17.55
2018-10-06T17:52:46.242Z,17.51
2018-10-06T17:55:14.792Z,17.64
2018-10-06T17:57:43.310Z,17.55
2018-10-06T18:00:11.873Z,17.52
2018-10-06T18:02:40.407Z,17.46
2018-10-06T18:05:08.919Z,17.36
2018-10-06T18:07:37.764Z,17.50
2018-10-06T18:10:06.317Z,17.41
2018-10-06T18:12:34.875Z,17.24
2018-10-06T18:15:05.898Z,17.29
2018-10-06T18:17:34.434Z,17.21
2018-10-06T18:20:05.069Z,17.23
2018-10-06T18:22:33.815Z,17.20
2018-10-06T18:25:04.712Z,17.14
2018-10-06T18:27:33.248Z,17.08
2018-10-06T18:30:02.739Z,16.92
2018-10-06T18:32:31.246Z,16.78
2018-10-06T18:34:59.966Z,16.65
2018-10-06T18:37:28.496Z,16.52
2018-10-06T18:39:57.040Z,16.46
2018-10-06T18:42:25.538Z,16.28
2018-10-06T18:44:54.041Z,16.12
2018-10-06T18:47:23.806Z,16.03
2018-10-06T18:49:52.437Z,15.99
2018-10-06T18:52:20.972Z,15.83
2018-10-06T18:54:49.538Z,15.87
2018-10-06T18:57:18.062Z,15.92
2018-10-06T18:59:46.573Z,16.04
2018-10-06T19:02:15.116Z,15.97
2018-10-06T19:04:43.960Z,16.04
2018-10-06T19:07:12.481Z,16.07
2018-10-06T19:09:40.977Z,16.04
2018-10-06T19:12:09.537Z,16.01
2018-10-06T19:14:38.186Z,15.94
2018-10-06T19:17:07.194Z,15.95
2018-10-06T19:19:35.702Z,15.96
2018-10-06T19:22:05.502Z,15.96
2018-10-06T19:24:34.310Z,16.02
2018-10-06T19:27:04.533Z,16.00
2018-10-06T19:29:33.145Z,16.02
2018-10-06T19:32:02.867Z,16.09
2018-10-06T19:34:31.387Z,16.08
2018-10-06T19:36:59.969Z,16.12
2018-10-06T19:39:28.504Z,16.18
2018-10-06T19:41:57.214Z,16.07
2018-10-06T19:44:25.790Z,16.06
2018-10-06T19:46:54.363Z,16.01
2018-10-06T19:49:22.856Z,16.07
2018-10-06T19:51:51.380Z,16.07
2018-10-06T19:54:19.980Z,16.00
2018-10-06T19:56:48.537Z,15.99
2018-10-06T19:59:17.153Z,16.04
2018-10-06T20:01:45.683Z,16.09
2018-10-06T20:04:14.383Z,15.98
2018-10-06T20:06:42.927Z,15.96
2018-10-06T20:09:11.912Z,15.91
2018-10-06T20:11:40.469Z,15.91
2018-10-06T20:14:09.219Z,15.96
2018-10-06T20:16:37.750Z,15.89
2018-10-06T20:19:06.366Z,15.87
2018-10-06T20:21:34.941Z,15.85
2018-10-06T20:24:07.486Z,15.80
2018-10-06T20:26:36.813Z,15.77
2018-10-06T20:29:06.475Z,15.74
2018-10-06T20:31:34.990Z,15.79
2018-10-06T20:34:05.958Z,15.71
2018-10-06T20:36:34.485Z,15.69
2018-10-06T20:39:08.361Z,15.70
2018-10-06T20:41:36.878Z,15.79
2018-10-06T20:44:05.475Z,15.79
2018-10-06T20:46:34.361Z,15.85
2018-10-06T20:49:04.987Z,15.67
2018-10-06T20:51:33.498Z,15.67
2018-10-06T20:54:07.017Z,15.77
2018-10-06T20:56:36.100Z,15.86
2018-10-06T20:59:06.471Z,15.79
2018-10-06T21:01:35.064Z,15.80
2018-10-06T21:04:06.072Z,15.64
2018-10-06T21:06:34.596Z,15.28
2018-10-06T21:09:06.128Z,15.14
2018-10-06T21:11:34.620Z,14.98
2018-10-06T21:14:04.827Z,14.81
2018-10-06T21:16:33.533Z,14.70
2018-10-06T21:19:04.873Z,14.75
2018-10-06T21:21:33.629Z,14.78
2018-10-06T21:24:03.410Z,14.72
2018-10-06T21:26:31.954Z,14.63
2018-10-06T21:29:00.537Z,14.65
2018-10-06T21:31:29.179Z,14.54
2018-10-06T21:33:57.655Z,14.41
2018-10-06T21:36:26.180Z,14.37
2018-10-06T21:38:55.012Z,14.30
2018-10-06T21:41:23.562Z,14.33
2018-10-06T21:43:52.242Z,14.31
2018-10-06T21:46:20.766Z,14.20
2018-10-06T21:48:49.326Z,14.14
2018-10-06T21:51:17.874Z,14.07
2018-10-06T21:53:46.388Z,14.11
2018-10-06T21:56:14.954Z,14.13
2018-10-06T21:58:43.985Z,14.06
2018-10-06T22:01:13.898Z,13.96
2018-10-06T22:03:43.233Z,14.02
2018-10-06T22:06:11.936Z,13.94
2018-10-06T22:08:40.504Z,13.94
2018-10-06T22:11:09.413Z,13.92
2018-10-06T22:13:37.958Z,13.88
2018-10-06T22:16:08.214Z,13.89
2018-10-06T22:18:36.814Z,13.89
2018-10-06T22:21:07.311Z,13.84
2018-10-06T22:23:35.861Z,13.78
2018-10-06T22:26:06.204Z,13.79
2018-10-06T22:28:34.733Z,13.79
2018-10-06T22:31:08.413Z,13.76
2018-10-06T22:33:36.944Z,13.80
2018-10-06T22:36:05.448Z,13.76
2018-10-06T22:38:33.997Z,13.72
2018-10-06T22:41:03.805Z,13.72
2018-10-06T22:43:32.405Z,13.72
2018-10-06T22:46:00.907Z,13.69
2018-10-06T22:48:29.429Z,13.71
2018-10-06T22:50:58.079Z,13.72
2018-10-06T22:53:26.658Z,13.74
2018-10-06T22:55:55.311Z,13.73
2018-10-06T22:58:23.909Z,13.74
2018-10-06T23:00:52.798Z,13.73
2018-10-06T23:03:21.425Z,13.65
2018-10-06T23:05:50.009Z,13.66
2018-10-06T23:08:18.544Z,13.61
2018-10-06T23:10:47.173Z,13.61
2018-10-06T23:13:15.757Z,13.59
2018-10-06T23:15:44.310Z,13.55
2018-10-06T23:18:12.829Z,13.56
2018-10-06T23:20:41.475Z,13.51
2018-10-06T23:23:10.086Z,13.51
2018-10-06T23:25:38.741Z,13.48
2018-10-06T23:28:09.362Z,13.48
2018-10-06T23:30:38.125Z,13.45
2018-10-06T23:33:06.891Z,13.35
2018-10-06T23:35:35.413Z,13.28
2018-10-06T23:38:07.144Z,13.21
2018-10-06T23:40:35.624Z,13.10
2018-10-06T23:43:05.488Z,13.01
2018-10-06T23:45:34.054Z,13.00
2018-10-06T23:48:03.934Z,12.88
2018-10-06T23:50:32.588Z,12.85
2018-10-06T23:53:02.941Z,12.75
2018-10-06T23:55:31.453Z,12.71
2018-10-06T23:57:59.970Z,12.73
